Time;durP1;ratioP1;P1;durP2;ratioP2;P2;SDS_P1;SDS_P2;PMS_P1;PMS_P2;Temp;Humidity;BMP_temperature;BMP_pressure;BME280_temperature;BME280_humidity;BME280_pressure;Samples;Min_cycle;Max_cycle;Signal;HPM_P1;HPM_P2
2023/01/18 00:01:20;;;;;;;;;;;;;;;1.89;71.14;99176.50;5026601;28;19939;-48
2023/01/18 00:03:45;;;;;;;;;;;;;;;1.89;71.30;99173.97;5042519;28;20305;-54
2023/01/18 00:06:11;;;;;;;;;;;;;;;1.89;71.09;99173.97;5048441;28;19920;-52
2023/01/18 00:08:37;;;;;;;;;;;;;;;1.87;71.26;99170.47;5045594;28;19997;-53
2023/01/18 00:11:06;;;;;;;;;;;;;;;1.86;71.13;99171.31;5047195;28;20323;-53
2023/01/18 00:13:32;;;;;;;;;;;;;;;1.81;71.25;99171.13;5047055;28;19920;-51
2023/01/18 00:16:01;;;;;;;;;;;;;;;1.81;71.38;99170.25;5045838;28;19923;-50
2023/01/18 00:18:27;;;;;;;;;;;;;;;1.80;71.52;99176.16;5049971;28;20280;-51
2023/01/18 00:20:52;;;;;;;;;;;;;;;1.81;71.29;99177.88;5048615;28;19921;-54
2023/01/18 00:23:17;;;;;;;;;;;;;;;1.81;71.54;99175.34;5044904;28;19964;-48
2023/01/18 00:25:42;;;;;;;;;;;;;;;1.80;71.52;99176.16;5046864;28;19971;-54
2023/01/18 00:28:07;;;;;;;;;;;;;;;1.79;71.58;99176.97;5048843;28;19928;-54
2023/01/18 00:30:33;;;;;;;;;;;;;;;1.78;71.41;99175.25;5041656;28;19932;-51
2023/01/18 00:32:58;;;;;;;;;;;;;;;1.78;71.45;99182.84;5045977;28;19920;-53
2023/01/18 00:35:24;;;;;;;;;;;;;;;1.77;71.49;99187.06;5047886;28;19928;-51
2023/01/18 00:37:50;;;;;;;;;;;;;;;1.77;71.46;99191.25;5042707;28;19928;-52
2023/01/18 00:40:16;;;;;;;;;;;;;;;1.77;71.63;99187.06;5043634;28;19924;-53
2023/01/18 00:45:25;;;;;;;;;;;;;;;1.77;71.55;99186.19;5043863;28;20002;-52
2023/01/18 00:47:51;;;;;;;;;;;;;;;1.74;71.50;99183.53;5043747;28;19929;-50
2023/01/18 00:50:18;;;;;;;;;;;;;;;1.73;71.62;99184.34;5043818;28;19925;-51
2023/01/18 00:52:45;;;;;;;;;;;;;;;1.70;71.50;99189.28;5042394;28;19925;-53
2023/01/18 00:55:11;;;;;;;;;;;;;;;1.69;71.51;99187.56;5045797;28;20016;-52
2023/01/18 00:57:36;;;;;;;;;;;;;;;1.68;71.68;99181.63;5043610;28;19925;-54
2023/01/18 01:00:02;;;;;;;;;;;;;;;1.66;71.51;99185.78;5042535;28;19973;-47
2023/01/18 01:02:27;;;;;;;;;;;;;;;1.64;71.55;99187.44;5045400;28;20498;-50
2023/01/18 01:07:36;;;;;;;;;;;;;;;1.60;71.64;99196.56;5041649;28;20001;-54
2023/01/18 01:10:07;;;;;;;;;;;;;;;1.57;71.68;99198.97;5044046;28;20381;-54
2023/01/18 01:26:13;;;;;;;;;;;;;;;1.55;72.04;99197.19;5043805;28;20344;-54
2023/01/18 01:28:41;;;;;;;;;;;;;;;1.56;71.84;99204.84;5025188;28;19920;-54
2023/01/18 01:31:07;;;;;;;;;;;;;;;1.56;72.00;99202.31;5044900;28;19924;-51
2023/01/18 01:33:33;;;;;;;;;;;;;;;1.55;71.95;99208.19;5042837;28;19916;-54
2023/01/18 01:36:00;;;;;;;;;;;;;;;1.53;71.98;99204.75;5045160;28;20282;-53
2023/01/18 01:38:26;;;;;;;;;;;;;;;1.51;71.99;99211.41;5036743;28;20289;-54
2023/01/18 01:40:57;;;;;;;;;;;;;;;1.52;72.05;99218.22;5041148;28;19974;-45
2023/01/18 01:44:03;;;;;;;;;;;;;;;1.54;71.92;99221.66;5041980;28;19956;-54
2023/01/18 01:46:28;;;;;;;;;;;;;;;1.54;71.89;99226.75;4979082;28;19933;-53
2023/01/18 01:49:02;;;;;;;;;;;;;;;1.53;71.87;99224.16;4982589;28;19921;-54
2023/01/18 01:51:27;;;;;;;;;;;;;;;1.51;71.80;99225.75;5012949;28;20475;-52
2023/01/18 01:53:53;;;;;;;;;;;;;;;1.46;71.96;99233.19;5043790;28;20031;-53
2023/01/18 01:56:19;;;;;;;;;;;;;;;1.44;71.87;99224.66;5043935;28;19916;-54
2023/01/18 01:58:47;;;;;;;;;;;;;;;1.44;72.04;99222.13;5042479;28;19925;-50
2023/01/18 02:01:12;;;;;;;;;;;;;;;1.45;72.04;99223.84;5042131;28;19920;-48
2023/01/18 02:03:39;;;;;;;;;;;;;;;1.45;72.17;99226.38;5043751;28;19927;-54
2023/01/18 02:06:21;;;;;;;;;;;;;;;1.46;72.03;99223.06;5042582;28;19921;-54
2023/01/18 02:08:47;;;;;;;;;;;;;;;1.45;71.90;99228.91;5041933;28;20304;-54
2023/01/18 02:11:12;;;;;;;;;;;;;;;1.45;72.18;99233.13;5045168;28;19928;-53
2023/01/18 02:13:37;;;;;;;;;;;;;;;1.46;72.11;99232.34;5035577;28;20405;-54
2023/01/18 02:16:25;;;;;;;;;;;;;;;1.46;72.07;99232.34;5039970;28;20355;-49
2023/01/18 02:18:59;;;;;;;;;;;;;;;1.44;72.13;99233.94;5040068;28;20460;-51
2023/01/18 02:21:38;;;;;;;;;;;;;;;1.42;72.10;99230.47;5040588;28;19928;-51
2023/01/18 02:24:15;;;;;;;;;;;;;;;1.41;72.08;99229.63;5044042;28;19924;-49
2023/01/18 02:26:55;;;;;;;;;;;;;;;1.38;72.15;99243.81;5042599;28;19955;-55
2023/01/18 02:29:23;;;;;;;;;;;;;;;1.36;72.22;99238.72;5041400;28;19921;-52
2023/01/18 02:31:51;;;;;;;;;;;;;;;1.33;72.33;99246.16;5039601;28;19971;-52
2023/01/18 02:34:43;;;;;;;;;;;;;;;1.29;72.43;99239.28;5043113;28;19928;-52
2023/01/18 02:37:25;;;;;;;;;;;;;;;1.28;72.54;99248.53;5038886;28;20011;-54
2023/01/18 02:39:57;;;;;;;;;;;;;;;1.29;72.56;99241.81;5041760;28;19917;-53
2023/01/18 02:47:56;;;;;;;;;;;;;;;1.29;72.84;99249.41;5038253;28;19928;-50
2023/01/18 02:50:24;;;;;;;;;;;;;;;1.30;72.75;99254.53;5046133;28;19929;-54
2023/01/18 02:52:50;;;;;;;;;;;;;;;1.29;72.62;99252.81;5046608;28;19929;-54
2023/01/18 02:55:32;;;;;;;;;;;;;;;1.28;72.74;99260.34;5045142;28;19924;-50
2023/01/18 02:58:03;;;;;;;;;;;;;;;1.26;72.62;99255.19;5047025;28;20400;-54
2023/01/18 03:00:31;;;;;;;;;;;;;;;1.27;72.68;99256.91;5027188;28;19917;-54
2023/01/18 03:02:57;;;;;;;;;;;;;;;1.25;72.63;99250.94;5048875;28;19916;-50
2023/01/18 03:05:23;;;;;;;;;;;;;;;1.25;72.84;99247.56;5046941;28;20457;-52
2023/01/18 03:07:53;;;;;;;;;;;;;;;1.24;72.78;99245.84;5044432;28;19948;-50
2023/01/18 03:10:19;;;;;;;;;;;;;;;1.24;72.73;99250.91;5047493;28;20290;-54
2023/01/18 03:12:56;;;;;;;;;;;;;;;1.22;72.81;99247.44;5045918;28;19932;-52
2023/01/18 03:15:40;;;;;;;;;;;;;;;1.21;72.70;99245.69;5044522;28;19921;-49
2023/01/18 03:18:15;;;;;;;;;;;;;;;1.20;72.94;99254.09;5050126;28;19971;-48
2023/01/18 03:20:41;;;;;;;;;;;;;;;1.20;72.69;99249.91;5029332;28;19963;-51
2023/01/18 03:25:53;;;;;;;;;;;;;;;1.19;72.99;99254.91;5042947;28;19931;-54
2023/01/18 03:33:56;;;;;;;;;;;;;;;1.12;72.74;99256.34;5043955;28;19924;-51
2023/01/18 03:36:24;;;;;;;;;;;;;;;1.11;72.85;99256.28;5042262;28;19921;-53
2023/01/18 03:38:53;;;;;;;;;;;;;;;1.07;72.78;99262.88;5045379;28;19921;-51
2023/01/18 03:41:19;;;;;;;;;;;;;;;1.04;72.96;99263.63;5044678;28;20351;-49
2023/01/18 03:43:46;;;;;;;;;;;;;;;1.03;72.92;99268.59;5042607;28;19935;-52
2023/01/18 03:46:14;;;;;;;;;;;;;;;1.01;73.15;99277.81;5042655;28;19920;-54
2023/01/18 03:48:39;;;;;;;;;;;;;;;1.01;73.20;99271.09;5046073;28;20021;-54
2023/01/18 03:51:17;;;;;;;;;;;;;;;0.98;73.08;99273.50;5043747;28;20055;-52
2023/01/18 03:53:49;;;;;;;;;;;;;;;0.99;73.12;99275.22;5038467;28;19947;-55
2023/01/18 03:56:20;;;;;;;;;;;;;;;0.97;73.09;99279.38;5025567;28;19924;-46
2023/01/18 03:58:46;;;;;;;;;;;;;;;0.96;73.00;99287.75;5045919;28;20436;-53
2023/01/18 04:01:12;;;;;;;;;;;;;;;0.97;73.50;99281.03;5042501;28;19969;-53
2023/01/18 04:03:37;;;;;;;;;;;;;;;0.96;73.05;99290.28;5045593;28;20011;-48
2023/01/18 04:06:04;;;;;;;;;;;;;;;0.95;72.78;99293.63;5043370;28;20015;-49
2023/01/18 04:08:29;;;;;;;;;;;;;;;0.94;73.16;99296.97;5047346;28;19928;-54
2023/01/18 04:10:54;;;;;;;;;;;;;;;0.94;73.01;99306.22;5048880;28;20289;-54
2023/01/18 04:13:19;;;;;;;;;;;;;;;0.96;73.13;99302.06;5049092;28;19917;-50
2023/01/18 04:15:45;;;;;;;;;;;;;;;0.95;73.03;99302.88;5050726;28;20070;-52
2023/01/18 04:18:10;;;;;;;;;;;;;;;0.93;73.06;99301.97;5049953;28;19917;-52
2023/01/18 04:20:35;;;;;;;;;;;;;;;0.94;73.05;99309.59;5048832;28;19921;-52
2023/01/18 04:23:00;;;;;;;;;;;;;;;0.94;73.18;99311.28;5048581;28;20502;-54
2023/01/18 04:25:26;;;;;;;;;;;;;;;0.92;73.02;99317.94;5050004;28;20332;-54
2023/01/18 04:27:51;;;;;;;;;;;;;;;0.90;73.06;99317.00;5044476;28;20377;-54
2023/01/18 04:30:16;;;;;;;;;;;;;;;0.89;72.90;99316.13;5046539;28;20385;-53
2023/01/18 04:32:44;;;;;;;;;;;;;;;0.86;73.11;99316.03;5048352;28;20337;-53
2023/01/18 04:35:10;;;;;;;;;;;;;;;0.84;73.07;99320.13;5046497;28;20011;-50
2023/01/18 04:37:36;;;;;;;;;;;;;;;0.83;73.01;99315.88;5050091;28;20519;-54
2023/01/18 04:40:02;;;;;;;;;;;;;;;0.82;73.18;99321.75;5045236;28;20274;-55
2023/01/18 04:42:29;;;;;;;;;;;;;;;0.82;73.25;99320.88;5043166;28;19921;-51
2023/01/18 04:44:54;;;;;;;;;;;;;;;0.83;73.29;99318.41;5043938;28;20023;-51
2023/01/18 04:47:19;;;;;;;;;;;;;;;0.82;73.29;99320.88;5039928;28;20457;-54
2023/01/18 04:49:45;;;;;;;;;;;;;;;0.80;73.26;99328.44;5041821;28;19929;-53
2023/01/18 04:52:10;;;;;;;;;;;;;;;0.80;73.46;99334.34;5043959;28;19932;-54
2023/01/18 04:54:35;;;;;;;;;;;;;;;0.79;73.29;99331.75;5045136;28;19921;-52
2023/01/18 04:57:01;;;;;;;;;;;;;;;0.77;73.53;99338.41;5042104;28;19956;-53
2023/01/18 04:59:27;;;;;;;;;;;;;;;0.77;73.55;99334.19;5043182;28;20011;-54
2023/01/18 05:01:52;;;;;;;;;;;;;;;0.78;73.45;99335.06;5042649;28;19924;-52
2023/01/18 05:04:18;;;;;;;;;;;;;;;0.79;73.60;99339.34;5042498;28;19928;-52
2023/01/18 05:06:43;;;;;;;;;;;;;;;0.79;73.65;99342.75;5042291;28;19932;-51
2023/01/18 05:09:10;;;;;;;;;;;;;;;0.79;73.60;99340.22;5043535;28;19929;-51
2023/01/18 05:11:35;;;;;;;;;;;;;;;0.80;73.66;99349.53;5041171;28;20390;-53
2023/01/18 05:14:00;;;;;;;;;;;;;;;0.79;73.63;99355.41;5043389;28;19980;-49
2023/01/18 05:16:26;;;;;;;;;;;;;;;0.78;73.49;99355.31;5041740;28;20372;-54
2023/01/18 05:18:52;;;;;;;;;;;;;;;0.78;73.56;99345.19;5041081;28;19978;-54
2023/01/18 05:21:17;;;;;;;;;;;;;;;0.78;73.59;99348.56;5041642;28;20616;-48
2023/01/18 05:23:42;;;;;;;;;;;;;;;0.77;73.51;99346.00;5038817;28;19936;-52
2023/01/18 05:26:13;;;;;;;;;;;;;;;0.74;73.54;99354.31;5043445;28;19969;-53
2023/01/18 05:28:39;;;;;;;;;;;;;;;0.76;73.58;99367.03;5037402;28;19916;-49
2023/01/18 05:31:04;;;;;;;;;;;;;;;0.71;73.53;99356.72;5043975;28;20759;-51
2023/01/18 05:33:29;;;;;;;;;;;;;;;0.72;73.78;99365.16;5040589;28;19936;-51
2023/01/18 05:35:55;;;;;;;;;;;;;;;0.73;73.78;99367.78;5037610;28;20012;-50
2023/01/18 05:38:21;;;;;;;;;;;;;;;0.72;73.60;99362.63;5039144;28;19968;-53
2023/01/18 05:40:47;;;;;;;;;;;;;;;0.71;73.77;99366.84;5041725;28;19991;-53
2023/01/18 05:43:12;;;;;;;;;;;;;;;0.72;73.81;99370.22;5039986;28;19917;-51
2023/01/18 05:45:38;;;;;;;;;;;;;;;0.68;73.77;99366.72;5040945;28;19929;-53
2023/01/18 05:48:03;;;;;;;;;;;;;;;0.69;73.85;99373.50;5040446;28;20404;-54
2023/01/18 05:50:28;;;;;;;;;;;;;;;0.71;73.60;99383.69;5040227;28;19921;-55
2023/01/18 05:52:56;;;;;;;;;;;;;;;0.71;73.60;99388.75;5038732;28;19936;-53
2023/01/18 05:55:21;;;;;;;;;;;;;;;0.71;73.70;99384.53;5042775;28;20357;-50
2023/01/18 05:57:46;;;;;;;;;;;;;;;0.73;73.76;99392.22;5044136;28;19972;-50
2023/01/18 06:00:11;;;;;;;;;;;;;;;0.73;73.63;99388.03;5042658;28;19967;-53
2023/01/18 06:02:37;;;;;;;;;;;;;;;0.72;73.78;99395.53;5040652;28;19929;-50
2023/01/18 06:05:02;;;;;;;;;;;;;;;0.71;73.80;99393.78;5042158;28;20011;-53
2023/01/18 06:07:27;;;;;;;;;;;;;;;0.69;73.98;99386.16;5044899;28;19962;-54
2023/01/18 06:09:52;;;;;;;;;;;;;;;0.69;73.95;99392.88;5040672;28;19978;-55
2023/01/18 06:12:18;;;;;;;;;;;;;;;0.68;74.03;99403.81;5045689;28;19927;-51
2023/01/18 06:14:43;;;;;;;;;;;;;;;0.69;74.03;99400.47;5027383;28;20019;-53
2023/01/18 06:17:08;;;;;;;;;;;;;;;0.68;73.94;99404.66;5046489;28;19929;-53
2023/01/18 06:19:34;;;;;;;;;;;;;;;0.71;73.97;99407.31;5047171;28;19936;-48
2023/01/18 06:21:59;;;;;;;;;;;;;;;0.71;73.95;99414.91;5048515;28;20432;-54
2023/01/18 06:24:24;;;;;;;;;;;;;;;0.73;73.87;99415.00;5047092;28;20012;-54
2023/01/18 06:26:50;;;;;;;;;;;;;;;0.72;73.83;99420.81;5029524;28;20004;-52
2023/01/18 06:29:15;;;;;;;;;;;;;;;0.72;73.88;99428.41;5029816;28;20056;-54
2023/01/18 06:31:40;;;;;;;;;;;;;;;0.73;73.89;99430.16;5046859;28;19964;-48
2023/01/18 06:34:08;;;;;;;;;;;;;;;0.71;73.89;99425.03;5047704;28;19917;-54
2023/01/18 06:36:37;;;;;;;;;;;;;;;0.72;73.80;99428.41;5028516;28;19960;-48
2023/01/18 06:39:02;;;;;;;;;;;;;;;0.70;73.91;99435.09;5043176;28;20405;-54
2023/01/18 06:41:28;;;;;;;;;;;;;;;0.69;73.67;99430.81;5026032;28;19917;-52
2023/01/18 06:43:53;;;;;;;;;;;;;;;0.69;73.67;99433.34;5036106;28;19975;-52
2023/01/18 06:46:19;;;;;;;;;;;;;;;0.67;73.82;99437.50;5040635;28;19954;-55
2023/01/18 06:48:44;;;;;;;;;;;;;;;0.65;73.58;99446.66;5040694;28;19924;-54
2023/01/18 06:51:11;;;;;;;;;;;;;;;0.64;73.80;99452.50;5040262;28;19952;-54
2023/01/18 06:53:36;;;;;;;;;;;;;;;0.62;73.96;99454.13;5041399;28;19920;-54
2023/01/18 06:56:01;;;;;;;;;;;;;;;0.62;74.01;99460.03;5026899;28;19921;-52
2023/01/18 06:58:28;;;;;;;;;;;;;;;0.60;74.05;99459.09;5039950;28;21510;-53
2023/01/18 07:00:58;;;;;;;;;;;;;;;0.59;73.97;99464.94;5042031;28;20601;-54
2023/01/18 07:03:24;;;;;;;;;;;;;;;0.59;74.08;99470.00;5041014;28;19920;-51
2023/01/18 07:05:51;;;;;;;;;;;;;;;0.60;74.06;99478.47;5045073;28;19947;-54
2023/01/18 07:08:19;;;;;;;;;;;;;;;0.58;73.87;99473.34;5045591;28;20022;-50
2023/01/18 07:10:45;;;;;;;;;;;;;;;0.58;74.12;99483.47;5046657;28;20015;-55
2023/01/18 07:13:10;;;;;;;;;;;;;;;0.57;74.01;99486.78;5042841;28;20015;-51
2023/01/18 07:15:35;;;;;;;;;;;;;;;0.54;74.03;99484.97;5046516;28;19955;-54
2023/01/18 07:18:00;;;;;;;;;;;;;;;0.54;74.25;99482.44;5037839;28;20305;-48
2023/01/18 07:20:25;;;;;;;;;;;;;;;0.54;74.08;99487.50;5010986;28;20035;-53
2023/01/18 07:22:53;;;;;;;;;;;;;;;0.56;74.16;99489.25;5046359;28;19924;-54
2023/01/18 07:25:19;;;;;;;;;;;;;;;0.57;74.01;99491.00;5044888;28;19917;-49
2023/01/18 07:27:45;;;;;;;;;;;;;;;0.54;74.15;99494.22;5045430;28;19928;-55
2023/01/18 07:30:11;;;;;;;;;;;;;;;0.55;74.22;99493.44;5044709;28;20413;-48
2023/01/18 07:32:36;;;;;;;;;;;;;;;0.54;74.08;99502.69;5027001;28;19955;-54
2023/01/18 07:35:02;;;;;;;;;;;;;;;0.56;74.17;99500.25;5046090;28;19925;-53
2023/01/18 07:37:27;;;;;;;;;;;;;;;0.57;74.23;99501.09;5044338;28;20352;-52
2023/01/18 07:39:52;;;;;;;;;;;;;;;0.57;73.92;99499.44;5044394;28;19925;-52
2023/01/18 07:42:18;;;;;;;;;;;;;;;0.57;74.01;99503.63;5044207;28;19982;-51
2023/01/18 07:44:43;;;;;;;;;;;;;;;0.54;73.91;99507.72;5044499;28;19942;-52
2023/01/18 07:47:08;;;;;;;;;;;;;;;0.54;74.19;99515.31;5044554;28;19939;-55
2023/01/18 07:49:33;;;;;;;;;;;;;;;0.53;74.12;99512.72;5046361;28;19928;-52
2023/01/18 07:51:58;;;;;;;;;;;;;;;0.52;74.14;99514.41;5036990;28;19931;-55
2023/01/18 07:54:25;;;;;;;;;;;;;;;0.55;74.01;99518.75;5045896;28;19929;-54
2023/01/18 07:56:50;;;;;;;;;;;;;;;0.54;74.19;99522.03;5027359;28;19921;-55
2023/01/18 07:59:16;;;;;;;;;;;;;;;0.54;74.13;99522.03;5045580;28;19970;-53
2023/01/18 08:01:41;;;;;;;;;;;;;;;0.54;74.30;99524.56;5042813;28;19967;-51
2023/01/18 08:04:06;;;;;;;;;;;;;;;0.52;74.23;99523.66;5044963;28;19974;-53
2023/01/18 08:06:31;;;;;;;;;;;;;;;0.52;74.38;99534.63;5045022;28;19921;-51
2023/01/18 08:08:58;;;;;;;;;;;;;;;0.52;74.23;99534.63;5043241;28;20032;-53
2023/01/18 08:11:23;;;;;;;;;;;;;;;0.52;74.31;99536.28;5044174;28;19951;-53
2023/01/18 08:13:51;;;;;;;;;;;;;;;0.52;74.47;99539.69;5042683;28;20373;-53
2023/01/18 08:16:17;;;;;;;;;;;;;;;0.52;74.52;99539.69;5043716;28;19931;-51
2023/01/18 08:18:44;;;;;;;;;;;;;;;0.56;74.47;99542.38;5046295;28;19929;-52
2023/01/18 08:21:12;;;;;;;;;;;;;;;0.57;74.49;99546.63;5049158;28;19967;-51
2023/01/18 08:23:38;;;;;;;;;;;;;;;0.60;74.73;99544.22;5044281;28;20273;-48
2023/01/18 08:26:04;;;;;;;;;;;;;;;0.58;74.75;99544.16;5041672;28;20012;-53
2023/01/18 08:28:29;;;;;;;;;;;;;;;0.62;74.63;99553.63;5046677;28;19935;-53
2023/01/18 08:31:04;;;;;;;;;;;;;;;0.62;74.69;99558.69;5050305;28;19917;-48
2023/01/18 08:33:29;;;;;;;;;;;;;;;0.66;74.85;99552.09;5049019;28;20427;-53
2023/01/18 08:35:54;;;;;;;;;;;;;;;0.68;74.65;99560.66;5032648;28;19921;-52
2023/01/18 08:38:20;;;;;;;;;;;;;;;0.69;74.68;99562.38;5049827;28;19936;-52
2023/01/18 08:40:46;;;;;;;;;;;;;;;0.68;74.75;99565.72;5049604;28;20484;-53
2023/01/18 08:43:11;;;;;;;;;;;;;;;0.71;74.84;99565.84;5049599;28;20012;-48
2023/01/18 08:45:36;;;;;;;;;;;;;;;0.73;74.72;99574.38;5050408;28;19921;-51
2023/01/18 08:48:03;;;;;;;;;;;;;;;0.75;74.89;99578.72;5048660;28;20023;-49
2023/01/18 08:50:29;;;;;;;;;;;;;;;0.79;74.93;99582.25;5049914;28;19995;-50
2023/01/18 08:52:55;;;;;;;;;;;;;;;0.82;74.87;99587.44;5049615;28;20605;-53
2023/01/18 08:55:21;;;;;;;;;;;;;;;0.84;74.86;99585.84;5048547;28;19979;-50
2023/01/18 08:57:46;;;;;;;;;;;;;;;0.89;74.90;99588.59;5051197;28;19957;-53
2023/01/18 09:00:12;;;;;;;;;;;;;;;0.90;74.91;99591.19;5042268;28;19951;-51
2023/01/18 09:02:37;;;;;;;;;;;;;;;0.95;74.87;99601.53;5048583;28;19921;-53
2023/01/18 09:05:02;;;;;;;;;;;;;;;1.01;74.92;99604.34;5047984;28;20292;-52
2023/01/18 09:07:28;;;;;;;;;;;;;;;1.07;74.99;99600.41;5046703;28;19912;-50
2023/01/18 09:09:53;;;;;;;;;;;;;;;1.17;75.08;99603.38;5047764;28;19916;-53
2023/01/18 09:12:18;;;;;;;;;;;;;;;1.25;74.65;99600.38;5049145;28;19921;-52
2023/01/18 09:14:43;;;;;;;;;;;;;;;1.34;74.83;99605.00;5030541;28;19932;-45
2023/01/18 09:17:09;;;;;;;;;;;;;;;1.48;74.93;99614.06;5049251;28;19917;-54
2023/01/18 09:19:34;;;;;;;;;;;;;;;1.63;74.69;99618.06;5048045;28;19960;-52
2023/01/18 09:21:59;;;;;;;;;;;;;;;1.76;74.55;99618.69;5048734;28;19925;-52
2023/01/18 09:24:25;;;;;;;;;;;;;;;1.92;74.47;99622.72;5049492;28;20252;-50
2023/01/18 09:26:50;;;;;;;;;;;;;;;2.10;74.37;99622.63;5049082;28;20378;-52
2023/01/18 09:29:16;;;;;;;;;;;;;;;2.33;73.92;99624.44;5049049;28;19964;-53
2023/01/18 09:31:42;;;;;;;;;;;;;;;2.58;74.07;99631.38;5049347;28;19932;-49
2023/01/18 09:34:08;;;;;;;;;;;;;;;2.84;74.33;99632.41;5040775;28;19913;-53
2023/01/18 09:36:33;;;;;;;;;;;;;;;3.05;72.81;99631.50;5048642;28;20361;-54
2023/01/18 09:38:58;;;;;;;;;;;;;;;3.24;73.42;99633.94;5048657;28;19995;-51
2023/01/18 09:41:32;;;;;;;;;;;;;;;3.40;73.04;99630.31;5046854;28;19964;-53
2023/01/18 09:44:18;;;;;;;;;;;;;;;3.57;73.13;99636.84;5048806;28;19913;-53
2023/01/18 09:46:43;;;;;;;;;;;;;;;3.78;71.87;99629.13;5047717;28;20015;-53
2023/01/18 09:49:15;;;;;;;;;;;;;;;3.98;72.74;99640.84;5048425;28;20379;-52
2023/01/18 09:51:41;;;;;;;;;;;;;;;4.17;72.05;99642.34;5047456;28;19920;-53
2023/01/18 09:54:24;;;;;;;;;;;;;;;4.36;72.44;99638.72;5048284;28;19913;-53
2023/01/18 09:56:50;;;;;;;;;;;;;;;4.57;71.86;99646.22;5046197;28;20400;-52
2023/01/18 09:59:19;;;;;;;;;;;;;;;4.74;70.92;99645.09;5048931;28;19917;-53
2023/01/18 10:01:45;;;;;;;;;;;;;;;4.91;71.55;99644.72;5047350;28;20395;-50
2023/01/18 10:04:22;;;;;;;;;;;;;;;5.02;70.66;99654.44;5048469;28;19913;-53
2023/01/18 10:06:51;;;;;;;;;;;;;;;5.21;72.29;99653.31;5049957;28;19988;-54
2023/01/18 10:09:31;;;;;;;;;;;;;;;5.34;71.34;99660.53;5040032;28;19920;-48
2023/01/18 10:11:58;;;;;;;;;;;;;;;5.46;69.67;99652.38;5047848;28;19917;-54
2023/01/18 10:14:26;;;;;;;;;;;;;;;5.55;71.08;99651.75;5047085;28;19917;-49
2023/01/18 10:16:56;;;;;;;;;;;;;;;5.61;71.70;99657.03;5047279;28;20153;-53
2023/01/18 10:19:24;;;;;;;;;;;;;;;5.71;71.29;99655.63;5047540;28;20304;-51
2023/01/18 10:22:07;;;;;;;;;;;;;;;5.86;69.11;99659.44;5046261;28;19916;-54
2023/01/18 10:24:43;;;;;;;;;;;;;;;6.03;70.03;99651.44;5045307;28;19913;-54
2023/01/18 10:27:09;;;;;;;;;;;;;;;6.17;70.91;99658.63;5045069;28;19932;-53
2023/01/18 10:29:47;;;;;;;;;;;;;;;6.31;69.73;99660.66;5040505;28;19920;-49
2023/01/18 10:32:16;;;;;;;;;;;;;;;6.42;68.22;99657.56;5041249;28;20935;-47
2023/01/18 10:34:44;;;;;;;;;;;;;;;6.56;69.54;99660.47;5041725;28;19968;-46
2023/01/18 10:37:13;;;;;;;;;;;;;;;6.70;68.70;99661.66;5039807;28;19955;-49
2023/01/18 10:39:50;;;;;;;;;;;;;;;6.87;69.22;99651.00;5043870;28;20373;-47
2023/01/18 10:42:18;;;;;;;;;;;;;;;7.12;68.77;99654.97;5035279;28;20435;-47
2023/01/18 10:44:43;;;;;;;;;;;;;;;7.34;69.36;99654.63;5040766;28;19916;-48
2023/01/18 10:47:10;;;;;;;;;;;;;;;7.59;69.62;99652.59;5041739;28;19921;-48
2023/01/18 10:49:36;;;;;;;;;;;;;;;7.84;70.41;99652.25;5040267;28;19982;-50
2023/01/18 10:52:16;;;;;;;;;;;;;;;8.04;68.57;99655.19;5042398;28;19928;-48
2023/01/18 10:54:48;;;;;;;;;;;;;;;8.21;71.43;99658.91;5039677;28;19921;-49
2023/01/18 10:57:18;;;;;;;;;;;;;;;8.29;68.49;99665.03;5042255;28;20443;-50
2023/01/18 10:59:44;;;;;;;;;;;;;;;8.29;67.38;99659.91;5045515;28;20032;-47
2023/01/18 11:02:19;;;;;;;;;;;;;;;8.29;65.53;99656.47;5041338;28;20497;-49
2023/01/18 11:04:45;;;;;;;;;;;;;;;8.29;69.59;99664.16;5042017;28;19917;-49
2023/01/18 11:07:11;;;;;;;;;;;;;;;8.22;67.31;99664.91;5040966;28;19925;-48
2023/01/18 11:09:40;;;;;;;;;;;;;;;8.17;67.71;99664.81;5041340;28;19985;-50
2023/01/18 11:12:32;;;;;;;;;;;;;;;8.10;65.92;99675.78;5041150;28;19920;-50
2023/01/18 11:15:24;;;;;;;;;;;;;;;7.99;63.91;99670.44;5037688;28;19936;-45
2023/01/18 11:17:53;;;;;;;;;;;;;;;7.91;64.31;99666.88;5036712;28;20369;-48
2023/01/18 11:20:24;;;;;;;;;;;;;;;7.84;65.12;99661.63;5040045;28;19952;-49
2023/01/18 11:22:53;;;;;;;;;;;;;;;7.78;63.34;99659.78;5047175;28;19920;-46
2023/01/18 11:25:19;;;;;;;;;;;;;;;7.68;63.71;99660.44;5046701;28;19916;-47
2023/01/18 11:27:45;;;;;;;;;;;;;;;7.62;62.68;99665.44;5043219;28;20445;-46
2023/01/18 11:30:19;;;;;;;;;;;;;;;7.53;63.71;99666.09;5038288;28;19920;-45
2023/01/18 11:32:45;;;;;;;;;;;;;;;7.47;64.43;99664.28;5040144;28;19931;-53
2023/01/18 11:35:20;;;;;;;;;;;;;;;7.43;62.92;99665.03;5040102;28;20378;-49
2023/01/18 11:37:46;;;;;;;;;;;;;;;7.37;64.63;99664.03;5036643;28;19925;-46
2023/01/18 11:40:17;;;;;;;;;;;;;;;7.33;64.20;99678.44;5038827;28;20363;-51
2023/01/18 11:42:43;;;;;;;;;;;;;;;7.28;63.29;99674.94;5041476;28;19920;-48
2023/01/18 11:45:20;;;;;;;;;;;;;;;7.26;62.33;99671.47;5041173;28;19940;-50
2023/01/18 11:47:55;;;;;;;;;;;;;;;7.21;63.85;99667.94;5041404;28;20377;-49
2023/01/18 11:50:27;;;;;;;;;;;;;;;7.19;64.33;99673.03;5034991;28;20465;-48
2023/01/18 11:52:55;;;;;;;;;;;;;;;7.17;63.64;99672.16;5043500;28;20347;-49
2023/01/18 11:55:24;;;;;;;;;;;;;;;7.16;64.06;99678.09;5044028;28;19971;-48
2023/01/18 11:57:50;;;;;;;;;;;;;;;7.11;63.09;99676.25;5043587;28;20401;-49
2023/01/18 12:00:17;;;;;;;;;;;;;;;7.09;63.76;99678.75;5046861;28;19962;-49
2023/01/18 12:02:45;;;;;;;;;;;;;;;7.10;63.24;99677.06;5050752;28;19917;-50
2023/01/18 12:05:21;;;;;;;;;;;;;;;7.10;63.23;99680.50;5045666;28;19995;-47
2023/01/18 12:07:52;;;;;;;;;;;;;;;7.13;64.15;99682.25;5048305;28;19929;-49
2023/01/18 12:10:22;;;;;;;;;;;;;;;7.16;63.65;99689.97;5042905;28;19928;-50
2023/01/18 12:12:47;;;;;;;;;;;;;;;7.18;63.92;99694.31;5047518;28;19921;-50
2023/01/18 12:15:28;;;;;;;;;;;;;;;7.21;63.84;99688.41;5051173;28;20377;-48
2023/01/18 12:18:11;;;;;;;;;;;;;;;7.23;63.59;99687.63;5044664;28;20060;-49
2023/01/18 12:20:36;;;;;;;;;;;;;;;7.28;63.60;99686.84;5044745;28;19921;-48
2023/01/18 12:23:01;;;;;;;;;;;;;;;7.33;64.14;99691.22;5038398;28;19917;-50
2023/01/18 12:25:26;;;;;;;;;;;;;;;7.38;64.20;99687.09;5041553;28;19928;-47
2023/01/18 12:28:12;;;;;;;;;;;;;;;7.43;64.26;99688.06;5042306;28;19916;-49
2023/01/18 12:30:55;;;;;;;;;;;;;;;7.43;62.75;99695.72;5043299;28;20003;-49
2023/01/18 12:33:29;;;;;;;;;;;;;;;7.42;63.18;99693.16;5043310;28;20398;-47
2023/01/18 12:36:27;;;;;;;;;;;;;;;7.43;62.59;99692.31;5043628;28;19931;-47
2023/01/18 12:38:54;;;;;;;;;;;;;;;7.45;62.77;99693.19;5009857;28;19944;-49
2023/01/18 12:41:31;;;;;;;;;;;;;;;7.46;62.82;99689.81;5029297;28;19925;-48
2023/01/18 12:44:02;;;;;;;;;;;;;;;7.45;62.89;99694.06;5045578;28;20008;-49
2023/01/18 12:46:33;;;;;;;;;;;;;;;7.48;62.49;99689.03;5041475;28;20031;-51
2023/01/18 12:49:06;;;;;;;;;;;;;;;7.51;62.15;99693.34;5042505;28;19916;-48
2023/01/18 12:51:34;;;;;;;;;;;;;;;7.50;62.47;99692.47;5040935;28;19979;-48
2023/01/18 12:54:05;;;;;;;;;;;;;;;7.50;62.11;99692.47;5042646;28;19951;-50
2023/01/18 12:56:34;;;;;;;;;;;;;;;7.50;61.92;99696.72;5050772;28;20366;-52
2023/01/18 12:59:02;;;;;;;;;;;;;;;7.52;62.14;99703.63;5040064;28;19920;-50
2023/01/18 13:01:35;;;;;;;;;;;;;;;7.55;62.03;99694.28;5045946;28;20385;-47
2023/01/18 13:04:06;;;;;;;;;;;;;;;7.51;61.82;99701.88;5049480;28;19921;-51
2023/01/18 13:06:34;;;;;;;;;;;;;;;7.49;62.10;99705.22;5047841;28;20270;-51
2023/01/18 13:09:05;;;;;;;;;;;;;;;7.51;62.24;99703.56;5049355;28;19925;-49
2023/01/18 13:11:36;;;;;;;;;;;;;;;7.47;62.23;99702.66;5047957;28;20419;-48
2023/01/18 13:14:20;;;;;;;;;;;;;;;7.45;61.88;99708.53;5049580;28;19935;-51
2023/01/18 13:16:45;;;;;;;;;;;;;;;7.40;62.35;99710.13;5048724;28;19924;-47
2023/01/18 13:19:19;;;;;;;;;;;;;;;7.38;62.07;99716.91;5047928;28;19927;-50
2023/01/18 13:21:55;;;;;;;;;;;;;;;7.36;61.77;99713.47;5047332;28;20015;-50
2023/01/18 13:24:29;;;;;;;;;;;;;;;7.29;60.52;99717.59;5047657;28;19917;-50
2023/01/18 13:27:11;;;;;;;;;;;;;;;7.22;61.10;99716.59;5049137;28;19916;-50
2023/01/18 13:29:37;;;;;;;;;;;;;;;7.19;61.34;99710.53;5047962;28;19935;-48
2023/01/18 13:32:19;;;;;;;;;;;;;;;7.16;61.02;99720.66;5040699;28;20376;-52
2023/01/18 13:34:47;;;;;;;;;;;;;;;7.10;60.45;99720.50;5045747;28;19913;-50
2023/01/18 13:37:32;;;;;;;;;;;;;;;7.07;61.21;99723.03;5048912;28;19924;-47